createdAt,value
2023-01-04T00:02:01.770Z,-1.52
2023-01-04T00:04:29.813Z,-1.56
2023-01-04T00:06:57.826Z,-1.55
2023-01-04T00:09:25.914Z,-1.56
2023-01-04T00:11:54.071Z,-1.57
2023-01-04T00:14:22.029Z,-1.59
2023-01-04T00:16:50.076Z,-1.60
2023-01-04T00:19:18.161Z,-1.61
2023-01-04T00:21:46.259Z,-1.63
2023-01-04T00:24:16.025Z,-1.65
2023-01-04T00:26:44.180Z,-1.64
2023-01-04T00:29:13.591Z,-1.61
2023-01-04T00:31:41.766Z,-1.61
2023-01-04T00:34:14.413Z,-1.58
2023-01-04T00:36:43.588Z,-1.58
2023-01-04T00:39:15.423Z,-1.57
2023-01-04T00:41:58.902Z,-1.57
2023-01-04T00:44:34.554Z,-1.56
2023-01-04T00:47:05.266Z,-1.57
2023-01-04T00:49:33.566Z,-1.58
2023-01-04T00:52:02.379Z,-1.61
2023-01-04T00:54:30.470Z,-1.64
2023-01-04T00:56:58.790Z,-1.64
2023-01-04T00:59:27.422Z,-1.63
2023-01-04T01:01:55.605Z,-1.62
2023-01-04T01:04:25.017Z,-1.62
2023-01-04T01:06:53.752Z,-1.63
2023-01-04T01:09:24.904Z,-1.64
2023-01-04T01:11:55.079Z,-1.64
2023-01-04T01:14:26.097Z,-1.68
2023-01-04T01:16:57.292Z,-1.71
2023-01-04T01:19:29.680Z,-1.75
2023-01-04T01:21:58.745Z,-1.71
2023-01-04T01:24:27.875Z,-1.69
2023-01-04T01:26:57.623Z,-1.66
2023-01-04T01:29:25.868Z,-1.58
2023-01-04T01:31:54.691Z,-1.53
2023-01-04T01:34:23.373Z,-1.48
2023-01-04T01:36:51.621Z,-1.47
2023-01-04T01:39:19.689Z,-1.45
2023-01-04T01:41:49.901Z,-1.39
2023-01-04T01:44:43.236Z,-1.36
2023-01-04T01:47:27.561Z,-1.32
2023-01-04T01:49:55.770Z,-1.26
2023-01-04T01:52:30.558Z,-1.18
2023-01-04T01:55:02.715Z,-1.10
2023-01-04T01:57:36.559Z,-1.00
2023-01-04T02:00:10.269Z,-0.91
2023-01-04T02:02:50.549Z,-0.78
2023-01-04T02:05:21.887Z,-0.70
2023-01-04T02:07:51.135Z,-0.63
2023-01-04T02:10:19.407Z,-0.53
2023-01-04T02:12:53.242Z,-0.43
2023-01-04T02:15:26.309Z,-0.37
2023-01-04T02:18:05.036Z,-0.34
2023-01-04T02:21:09.528Z,-0.27
2023-01-04T02:23:43.476Z,-0.13
2023-01-04T02:26:34.796Z,-0.04
2023-01-04T02:29:31.872Z,0.03
2023-01-04T02:32:27.601Z,0.11
2023-01-04T02:35:14.125Z,0.20
2023-01-04T02:37:53.453Z,0.24
2023-01-04T02:40:31.952Z,0.30
2023-01-04T02:43:31.094Z,0.36
2023-01-04T02:46:06.655Z,0.40
2023-01-04T02:48:58.034Z,0.44
2023-01-04T02:51:31.530Z,0.46
2023-01-04T02:54:08.156Z,0.42
2023-01-04T02:56:38.872Z,0.42
2023-01-04T02:59:41.543Z,0.45
2023-01-04T03:02:37.857Z,0.52
2023-01-04T03:06:01.801Z,0.61
2023-01-04T03:08:54.892Z,0.68
2023-01-04T03:11:47.457Z,0.78
2023-01-04T03:14:32.343Z,0.83
2023-01-04T03:17:11.499Z,0.85
2023-01-04T03:19:54.598Z,0.78
2023-01-04T03:23:03.933Z,0.80
2023-01-04T03:26:04.201Z,0.79
2023-01-04T03:28:56.380Z,0.71
2023-01-04T03:31:53.395Z,0.69
2023-01-04T03:34:45.507Z,0.73
2023-01-04T03:37:46.681Z,0.76
2023-01-04T03:40:50.060Z,0.82
2023-01-04T03:43:48.619Z,0.90
2023-01-04T03:46:57.553Z,0.89
2023-01-04T03:49:45.078Z,0.94
2023-01-04T03:52:16.181Z,1.00
2023-01-04T03:54:49.027Z,1.03
2023-01-04T03:57:18.673Z,1.00
2023-01-04T03:59:57.098Z,0.96
2023-01-04T04:02:30.567Z,0.91
2023-01-04T04:05:17.231Z,0.87
2023-01-04T04:08:03.827Z,0.79
2023-01-04T04:10:32.068Z,0.71
2023-01-04T04:12:59.990Z,0.65
2023-01-04T04:15:28.726Z,0.61
2023-01-04T04:17:56.672Z,0.54
2023-01-04T04:20:24.684Z,0.45
2023-01-04T04:22:54.150Z,0.38
2023-01-04T04:25:22.282Z,0.34
2023-01-04T04:27:50.265Z,0.24
2023-01-04T04:30:18.371Z,0.15
2023-01-04T04:32:46.525Z,0.08
2023-01-04T04:35:14.684Z,0.02
2023-01-04T04:37:42.818Z,-0.06
2023-01-04T04:40:32.785Z,-0.12
2023-01-04T04:43:00.816Z,-0.13
2023-01-04T04:45:28.868Z,-0.14
2023-01-04T04:47:57.163Z,-0.18
2023-01-04T04:50:25.177Z,-0.30
2023-01-04T04:52:56.305Z,-0.34
2023-01-04T04:55:25.178Z,-0.32
2023-01-04T04:57:53.373Z,-0.34
2023-01-04T05:00:21.784Z,-0.40
2023-01-04T05:02:49.835Z,-0.42
2023-01-04T05:05:19.310Z,-0.42
2023-01-04T05:07:47.277Z,-0.40
2023-01-04T05:10:15.494Z,-0.37
2023-01-04T05:13:01.753Z,-0.30
2023-01-04T05:15:40.810Z,-0.28
2023-01-04T05:18:11.768Z,-0.31
2023-01-04T05:20:39.900Z,-0.33
2023-01-04T05:23:10.968Z,-0.32
2023-01-04T05:25:40.241Z,-0.29
2023-01-04T05:28:09.877Z,-0.28
2023-01-04T05:30:51.035Z,-0.28
2023-01-04T05:33:37.632Z,-0.29
2023-01-04T05:36:05.866Z,-0.34
2023-01-04T05:38:35.649Z,-0.36
2023-01-04T05:41:03.719Z,-0.34
2023-01-04T05:43:31.689Z,-0.36
2023-01-04T05:45:59.779Z,-0.39
2023-01-04T05:48:27.936Z,-0.41
2023-01-04T05:50:56.037Z,-0.42
2023-01-04T05:53:23.975Z,-0.43
2023-01-04T05:55:52.090Z,-0.48
2023-01-04T05:58:20.152Z,-0.50
2023-01-04T06:00:48.190Z,-0.53
2023-01-04T06:03:16.352Z,-0.55
2023-01-04T06:05:52.587Z,-0.60
2023-01-04T06:08:20.730Z,-0.65
2023-01-04T06:10:55.494Z,-0.69
2023-01-04T06:13:23.737Z,-0.74
2023-01-04T06:15:51.637Z,-0.74
2023-01-04T06:18:20.593Z,-0.72
2023-01-04T06:20:51.774Z,-0.69
2023-01-04T06:23:19.849Z,-0.66
2023-01-04T06:25:47.800Z,-0.62
2023-01-04T06:28:15.886Z,-0.58
2023-01-04T06:30:43.862Z,-0.52
2023-01-04T06:33:11.896Z,-0.47
2023-01-04T06:35:39.787Z,-0.42
2023-01-04T06:38:07.823Z,-0.36
2023-01-04T06:40:35.912Z,-0.31
2023-01-04T06:43:03.916Z,-0.28
2023-01-04T06:45:31.869Z,-0.25
2023-01-04T06:48:03.311Z,-0.24
2023-01-04T06:50:35.041Z,-0.23
2023-01-04T06:53:03.165Z,-0.23
2023-01-04T06:55:32.197Z,-0.23
2023-01-04T06:58:00.226Z,-0.27
2023-01-04T07:00:28.479Z,-0.28
2023-01-04T07:03:13.654Z,-0.30
2023-01-04T07:05:45.068Z,-0.31
2023-01-04T07:08:14.868Z,-0.28
2023-01-04T07:10:43.063Z,-0.26
2023-01-04T07:13:11.945Z,-0.21
2023-01-04T07:15:41.187Z,-0.16
2023-01-04T07:18:11.739Z,-0.11
2023-01-04T07:20:39.962Z,-0.04
2023-01-04T07:23:09.239Z,0.03
2023-01-04T07:25:37.176Z,0.08
2023-01-04T07:28:05.529Z,0.14
2023-01-04T07:30:33.779Z,0.23
2023-01-04T07:33:02.389Z,0.28
2023-01-04T07:35:30.371Z,0.34
2023-01-04T07:37:59.340Z,0.41
2023-01-04T07:40:28.192Z,0.47
2023-01-04T07:42:59.411Z,0.57
2023-01-04T07:45:28.366Z,0.62
2023-01-04T07:47:58.435Z,0.63
2023-01-04T07:50:26.531Z,0.72
2023-01-04T07:52:55.322Z,0.80
2023-01-04T07:55:23.447Z,0.90
2023-01-04T07:57:53.448Z,0.99
2023-01-04T08:00:21.505Z,1.10
2023-01-04T08:02:50.723Z,1.20
2023-01-04T08:05:20.302Z,1.30
2023-01-04T08:07:48.830Z,1.39
2023-01-04T08:10:16.890Z,1.48
2023-01-04T08:12:44.836Z,1.59
2023-01-04T08:15:15.477Z,1.66
2023-01-04T08:17:43.530Z,1.75
2023-01-04T08:20:11.759Z,1.82
2023-01-04T08:22:39.781Z,1.88
2023-01-04T08:25:08.047Z,1.94
2023-01-04T08:27:36.106Z,1.99
2023-01-04T08:30:05.658Z,2.08
2023-01-04T08:32:33.539Z,2.16
2023-01-04T08:35:01.548Z,2.20
2023-01-04T08:37:32.525Z,2.25
2023-01-04T08:40:00.457Z,2.34
2023-01-04T08:42:31.473Z,2.46
2023-01-04T08:45:02.176Z,2.54
2023-01-04T08:47:33.398Z,2.63
2023-01-04T08:50:08.044Z,2.68
2023-01-04T08:52:38.982Z,2.72
2023-01-04T08:55:12.528Z,2.78
2023-01-04T08:57:42.748Z,2.84
2023-01-04T09:00:11.413Z,2.91
2023-01-04T09:02:39.822Z,3.00
2023-01-04T09:05:09.600Z,3.16
2023-01-04T09:07:38.300Z,3.23
2023-01-04T09:10:07.077Z,3.30
2023-01-04T09:12:36.137Z,3.36
2023-01-04T09:15:04.568Z,3.42
2023-01-04T09:17:32.455Z,3.49
2023-01-04T09:20:00.529Z,3.56
2023-01-04T09:22:28.696Z,3.64
2023-01-04T09:24:56.781Z,3.70
2023-01-04T09:27:24.847Z,3.77
2023-01-04T09:29:52.892Z,3.82
2023-01-04T09:32:21.118Z,3.85
2023-01-04T09:34:49.118Z,3.89
2023-01-04T09:37:17.143Z,3.90
2023-01-04T09:39:46.822Z,3.97
2023-01-04T09:42:36.972Z,4.03
2023-01-04T09:45:24.495Z,4.12
2023-01-04T09:47:59.271Z,4.20
2023-01-04T09:50:35.553Z,4.28
2023-01-04T09:53:25.131Z,4.36
2023-01-04T09:56:03.076Z,4.41
2023-01-04T09:58:36.767Z,4.45
2023-01-04T10:01:11.875Z,4.49
2023-01-04T10:04:02.962Z,4.50
2023-01-04T10:06:34.491Z,4.51
2023-01-04T10:09:10.439Z,4.52
2023-01-04T10:11:51.359Z,4.46
2023-01-04T10:14:32.003Z,4.49
2023-01-04T10:17:15.156Z,4.57
2023-01-04T10:23:27.747Z,4.75
2023-01-04T10:26:12.223Z,4.79
2023-01-04T10:29:04.039Z,4.85
2023-01-04T10:31:43.691Z,4.91
2023-01-04T10:34:39.583Z,4.94
2023-01-04T10:37:24.174Z,4.96
2023-01-04T10:39:56.317Z,5.02
2023-01-04T10:42:35.133Z,5.13
2023-01-04T10:45:19.018Z,5.25
2023-01-04T10:48:03.016Z,5.35
2023-01-04T10:50:51.992Z,5.43
2023-01-04T10:53:33.530Z,5.49
2023-01-04T10:56:25.329Z,5.53
2023-01-04T10:59:03.226Z,5.62
2023-01-04T11:01:44.404Z,5.69
2023-01-04T11:04:29.862Z,5.76
2023-01-04T11:07:07.137Z,5.80
2023-01-04T11:10:00.178Z,5.82
2023-01-04T11:12:28.391Z,5.83
2023-01-04T11:14:56.397Z,5.82
2023-01-04T11:17:26.535Z,5.80
2023-01-04T11:19:54.954Z,5.79
2023-01-04T11:22:30.198Z,5.78
2023-01-04T11:28:02.790Z,5.71
2023-01-04T11:31:09.781Z,5.67
2023-01-04T11:34:10.958Z,5.61
2023-01-04T11:36:45.585Z,5.55
2023-01-04T11:39:25.932Z,5.50
2023-01-04T11:42:06.861Z,5.46
2023-01-04T11:44:36.428Z,5.41
2023-01-04T11:47:20.000Z,5.37
2023-01-04T11:49:48.897Z,5.32
2023-01-04T11:52:37.949Z,5.28
2023-01-04T11:55:28.984Z,5.22
2023-01-04T11:58:16.623Z,5.20
2023-01-04T12:00:50.662Z,5.17
2023-01-04T12:03:25.271Z,5.16
2023-01-04T12:05:54.107Z,5.16
2023-01-04T12:08:34.819Z,5.18
2023-01-04T12:11:06.071Z,5.20
2023-01-04T12:13:35.503Z,5.23
2023-01-04T12:16:36.697Z,5.25
2023-01-04T12:19:05.716Z,5.28
2023-01-04T12:21:35.901Z,5.30
2023-01-04T12:24:07.598Z,5.31
2023-01-04T12:27:02.416Z,5.33
2023-01-04T12:30:05.266Z,5.34
2023-01-04T12:32:33.286Z,5.38
2023-01-04T12:35:03.418Z,5.40
2023-01-04T12:37:49.886Z,5.40
2023-01-04T12:40:48.864Z,5.38
2023-01-04T12:43:17.085Z,5.35
2023-01-04T12:46:07.587Z,5.36
2023-01-04T12:48:54.616Z,5.36
2023-01-04T12:51:32.676Z,5.41
2023-01-04T12:54:06.142Z,5.42
2023-01-04T12:57:12.204Z,5.43
2023-01-04T12:59:54.805Z,5.44
2023-01-04T13:03:09.487Z,5.44
2023-01-04T13:05:58.019Z,5.43
2023-01-04T13:08:33.521Z,5.42
2023-01-04T13:11:05.272Z,5.43
2023-01-04T13:13:58.442Z,5.41
2023-01-04T13:17:02.599Z,5.39
2023-01-04T13:19:32.218Z,5.37
2023-01-04T13:22:00.339Z,5.36
2023-01-04T13:24:35.427Z,5.35
2023-01-04T13:27:10.451Z,5.36
2023-01-04T13:29:41.919Z,5.36
2023-01-04T13:32:12.162Z,5.35
2023-01-04T13:34:44.716Z,5.36
2023-01-04T13:37:14.301Z,5.38
2023-01-04T13:40:28.631Z,5.38
2023-01-04T13:43:15.693Z,5.39
2023-01-04T13:46:02.097Z,5.39
2023-01-04T13:48:38.854Z,5.39
2023-01-04T13:51:37.086Z,5.41
2023-01-04T13:54:22.681Z,5.42
2023-01-04T13:56:55.834Z,5.44
2023-01-04T13:59:24.202Z,5.45
2023-01-04T14:01:53.857Z,5.48
2023-01-04T14:04:28.123Z,5.49
2023-01-04T14:07:01.398Z,5.50
2023-01-04T14:09:35.777Z,5.51
2023-01-04T14:12:30.059Z,5.52
2023-01-04T14:15:21.931Z,5.54
2023-01-04T14:17:53.383Z,5.56
2023-01-04T14:20:36.521Z,5.59
2023-01-04T14:23:05.735Z,5.60
2023-01-04T14:25:33.750Z,5.63
2023-01-04T14:28:23.224Z,5.64
2023-01-04T14:31:03.778Z,5.66
2023-01-04T14:33:39.911Z,5.68
2023-01-04T14:36:07.856Z,5.69
2023-01-04T14:38:40.189Z,5.69
2023-01-04T14:41:19.159Z,5.71
2023-01-04T14:43:54.940Z,5.71
2023-01-04T14:46:23.938Z,5.71
2023-01-04T14:48:52.188Z,5.72
2023-01-04T14:51:24.436Z,5.74
2023-01-04T14:53:52.333Z,5.73
2023-01-04T14:56:20.462Z,5.72
2023-01-04T14:58:48.537Z,5.69
2023-01-04T15:01:17.446Z,5.71
2023-01-04T15:03:46.084Z,5.72
2023-01-04T15:06:14.832Z,5.72
2023-01-04T15:08:43.010Z,5.71
2023-01-04T15:11:16.360Z,5.70
2023-01-04T15:13:44.558Z,5.70
2023-01-04T15:16:16.599Z,5.60
2023-01-04T15:18:47.388Z,5.62
2023-01-04T15:21:15.471Z,5.59
2023-01-04T15:23:43.545Z,5.62
2023-01-04T15:26:12.827Z,5.63
2023-01-04T15:28:40.944Z,5.62
2023-01-04T15:31:13.321Z,5.63
2023-01-04T15:33:42.179Z,5.66
2023-01-04T15:36:23.289Z,5.69
2023-01-04T15:38:56.175Z,5.71
2023-01-04T15:41:42.663Z,5.70
2023-01-04T15:44:11.984Z,5.68
2023-01-04T15:46:40.863Z,5.72
2023-01-04T15:49:15.021Z,5.76
2023-01-04T15:51:46.802Z,5.76
2023-01-04T15:54:14.816Z,5.78
2023-01-04T15:56:42.934Z,5.79
2023-01-04T15:59:11.018Z,5.81
2023-01-04T16:01:39.865Z,5.82
2023-01-04T16:04:08.437Z,5.80
2023-01-04T16:06:36.488Z,5.82
2023-01-04T16:09:05.700Z,5.84
2023-01-04T16:11:34.491Z,5.86
2023-01-04T16:14:03.487Z,5.87
2023-01-04T16:16:33.227Z,5.91
2023-01-04T16:19:02.624Z,5.88
2023-01-04T16:21:32.224Z,5.87
2023-01-04T16:24:09.245Z,5.92
2023-01-04T16:26:41.423Z,5.94
2023-01-04T16:29:13.638Z,5.97
2023-01-04T16:31:43.631Z,5.99
2023-01-04T16:34:13.553Z,6.01
2023-01-04T16:36:41.537Z,6.02
2023-01-04T16:39:09.543Z,6.06
2023-01-04T16:41:37.522Z,6.07
2023-01-04T16:44:06.805Z,6.08
2023-01-04T16:46:37.810Z,6.10
2023-01-04T16:49:05.916Z,6.12
2023-01-04T16:51:37.169Z,6.14
2023-01-04T16:54:09.146Z,6.15
2023-01-04T16:56:39.150Z,6.17
2023-01-04T16:59:07.393Z,6.18
2023-01-04T17:01:42.320Z,6.19
2023-01-04T17:04:16.525Z,6.21
2023-01-04T17:06:46.837Z,6.22
2023-01-04T17:09:20.050Z,6.23
2023-01-04T17:15:00.859Z,6.28
2023-01-04T17:17:36.096Z,6.30
2023-01-04T17:20:06.962Z,6.32
2023-01-04T17:22:35.905Z,6.34
2023-01-04T17:25:04.918Z,6.37
2023-01-04T17:27:35.013Z,6.37
2023-01-04T17:30:04.384Z,6.41
2023-01-04T17:32:32.281Z,6.42
2023-01-04T17:35:00.274Z,6.44
2023-01-04T17:37:28.279Z,6.45
2023-01-04T17:39:56.339Z,6.45
2023-01-04T17:42:24.364Z,6.47
2023-01-04T17:44:53.405Z,6.48
2023-01-04T17:47:21.462Z,6.50
2023-01-04T17:49:49.579Z,6.52
2023-01-04T17:52:22.355Z,6.56
2023-01-04T17:54:54.630Z,6.58
2023-01-04T17:57:22.763Z,6.60
2023-01-04T17:59:50.710Z,6.62
2023-01-04T18:02:18.934Z,6.64
2023-01-04T18:04:53.543Z,6.67
2023-01-04T18:07:25.750Z,6.69
2023-01-04T18:09:55.259Z,6.71
2023-01-04T18:12:23.368Z,6.73
2023-01-04T18:14:51.319Z,6.74
2023-01-04T18:17:19.540Z,6.77
2023-01-04T18:19:49.469Z,6.78
2023-01-04T18:22:17.398Z,6.80
2023-01-04T18:24:45.293Z,6.81
2023-01-04T18:27:23.715Z,6.84
2023-01-04T18:29:56.218Z,6.86
2023-01-04T18:32:26.824Z,6.87
2023-01-04T18:34:55.023Z,6.90
2023-01-04T18:37:22.947Z,6.89
2023-01-04T18:39:51.262Z,6.87
2023-01-04T18:42:19.967Z,6.89
2023-01-04T18:44:49.399Z,6.86
2023-01-04T18:47:21.275Z,6.82
2023-01-04T18:49:50.606Z,6.78
2023-01-04T18:52:20.476Z,6.81
2023-01-04T18:54:48.792Z,6.85
2023-01-04T18:57:21.635Z,6.89
2023-01-04T18:59:52.181Z,6.85
2023-01-04T19:02:21.342Z,6.95
2023-01-04T19:04:50.961Z,7.02
2023-01-04T19:07:19.105Z,7.04
2023-01-04T19:09:47.294Z,7.04
2023-01-04T19:12:16.305Z,7.08
2023-01-04T19:14:44.444Z,7.11
2023-01-04T19:17:12.500Z,7.10
2023-01-04T19:19:40.609Z,7.11
2023-01-04T19:22:08.836Z,7.13
2023-01-04T19:24:36.873Z,7.13
2023-01-04T19:27:05.800Z,7.14
2023-01-04T19:29:34.861Z,7.17
2023-01-04T19:32:04.423Z,7.19
2023-01-04T19:34:32.451Z,7.20
2023-01-04T19:37:00.455Z,7.21
2023-01-04T19:39:28.781Z,7.22
2023-01-04T19:41:56.946Z,7.23
2023-01-04T19:44:24.776Z,7.24
2023-01-04T19:46:52.774Z,7.25
2023-01-04T19:49:22.204Z,7.27
2023-01-04T19:51:52.243Z,7.28
2023-01-04T19:54:24.965Z,7.29
2023-01-04T19:56:54.992Z,7.31
2023-01-04T19:59:24.169Z,7.33
2023-01-04T20:01:52.301Z,7.33
2023-01-04T20:04:21.090Z,7.35
2023-01-04T20:06:49.075Z,7.38
2023-01-04T20:09:25.047Z,7.39
2023-01-04T20:11:54.804Z,7.41
2023-01-04T20:14:23.129Z,7.44
2023-01-04T20:16:51.255Z,7.45
2023-01-04T20:19:19.929Z,7.46
2023-01-04T20:21:47.982Z,7.47
2023-01-04T20:24:16.163Z,7.48
2023-01-04T20:26:44.304Z,7.47
2023-01-04T20:29:13.101Z,7.49
2023-01-04T20:31:45.767Z,7.49
2023-01-04T20:34:14.501Z,7.50
2023-01-04T20:36:42.482Z,7.51
2023-01-04T20:39:11.336Z,7.52
2023-01-04T20:41:59.381Z,7.55
2023-01-04T20:44:27.387Z,7.57
2023-01-04T20:46:55.466Z,7.57
2023-01-04T20:49:24.607Z,7.61
2023-01-04T20:51:52.613Z,7.63
2023-01-04T20:54:20.733Z,7.65
2023-01-04T20:56:48.672Z,7.66
2023-01-04T20:59:16.815Z,7.65
2023-01-04T21:01:44.907Z,7.68
2023-01-04T21:04:16.429Z,7.70
2023-01-04T21:06:45.370Z,7.70
2023-01-04T21:09:14.176Z,7.72
2023-01-04T21:11:42.245Z,7.74
2023-01-04T21:14:12.097Z,7.75
2023-01-04T21:16:42.481Z,7.79
2023-01-04T21:19:10.496Z,7.82
2023-01-04T21:21:39.216Z,7.86
2023-01-04T21:24:07.692Z,7.86
2023-01-04T21:26:35.688Z,7.88
2023-01-04T21:29:03.678Z,7.88
2023-01-04T21:31:31.934Z,7.91
2023-01-04T21:34:00.191Z,7.92
2023-01-04T21:36:29.468Z,7.94
2023-01-04T21:38:59.308Z,7.96
2023-01-04T21:41:28.142Z,7.97
2023-01-04T21:43:58.472Z,7.96
2023-01-04T21:46:29.358Z,8.00
2023-01-04T21:49:02.180Z,8.04
2023-01-04T21:51:30.687Z,8.06
2023-01-04T21:54:02.246Z,8.08
2023-01-04T21:56:31.628Z,8.11
2023-01-04T21:58:59.823Z,8.13
2023-01-04T22:01:34.971Z,8.17
2023-01-04T22:04:05.018Z,8.20
2023-01-04T22:06:34.794Z,8.22
2023-01-04T22:09:03.925Z,8.24
2023-01-04T22:11:31.953Z,8.27
2023-01-04T22:13:59.974Z,8.29
2023-01-04T22:16:30.040Z,8.31
2023-01-04T22:18:58.047Z,8.31
2023-01-04T22:21:27.279Z,8.30
2023-01-04T22:23:55.400Z,8.32
2023-01-04T22:26:23.373Z,8.36
2023-01-04T22:28:51.365Z,8.38
2023-01-04T22:31:19.461Z,8.42
2023-01-04T22:33:51.429Z,8.46
2023-01-04T22:36:23.373Z,8.50
2023-01-04T22:38:56.035Z,8.52
2023-01-04T22:41:27.832Z,8.56
2023-01-04T22:43:59.032Z,8.57
2023-01-04T22:46:29.029Z,8.60
2023-01-04T22:48:58.669Z,8.63
2023-01-04T22:51:29.055Z,8.67
2023-01-04T22:54:00.435Z,8.71
2023-01-04T22:56:29.541Z,8.74
2023-01-04T22:58:58.693Z,8.77
2023-01-04T23:01:31.555Z,8.78
2023-01-04T23:04:02.027Z,8.83
2023-01-04T23:06:31.896Z,8.85
2023-01-04T23:09:03.638Z,8.87
2023-01-04T23:11:33.877Z,8.93
2023-01-04T23:14:05.025Z,8.93
2023-01-04T23:16:33.657Z,8.95
2023-01-04T23:19:05.751Z,8.97
2023-01-04T23:21:35.619Z,8.94
2023-01-04T23:24:05.552Z,8.92
2023-01-04T23:26:34.028Z,8.93
2023-01-04T23:29:02.941Z,8.90
2023-01-04T23:31:33.185Z,8.91
2023-01-04T23:34:04.834Z,8.89
2023-01-04T23:36:38.956Z,8.90
2023-01-04T23:39:12.356Z,8.92
2023-01-04T23:41:44.807Z,8.93
2023-01-04T23:44:24.727Z,8.93
2023-01-04T23:46:59.652Z,8.96
2023-01-04T23:49:31.113Z,8.96
2023-01-04T23:52:00.724Z,9.00
2023-01-04T23:54:29.709Z,9.01
2023-01-04T23:56:58.142Z,9.05
2023-01-04T23:59:27.088Z,9.06
